Time;durP1;ratioP1;P1;durP2;ratioP2;P2;SDS_P1;SDS_P2;PMS_P1;PMS_P2;Temp;Humidity;BMP_temperature;BMP_pressure;BME280_temperature;BME280_humidity;BME280_pressure;Samples;Min_cycle;Max_cycle;Signal;HPM_P1;HPM_P2
2023/10/07 00:02:15;;;;;;;14.95;6.57;;;;;;;19.52;62.07;100578.22;6270087;22;20072;-94
2023/10/07 00:04:42;;;;;;;11.85;6.72;;;;;;;19.31;62.02;100534.44;6305019;22;20007;-94
2023/10/07 00:07:11;;;;;;;10.88;6.40;;;;;;;19.08;62.52;100524.63;6276971;22;20046;-90
2023/10/07 00:09:40;;;;;;;10.65;6.30;;;;;;;18.73;62.98;100498.19;6277628;22;20007;-90
2023/10/07 00:12:12;;;;;;;13.13;7.40;;;;;;;19.04;63.12;100555.91;6305565;22;19999;-92
2023/10/07 00:14:39;;;;;;;11.18;6.18;;;;;;;18.68;63.67;100508.19;6328540;22;20438;-92
2023/10/07 00:17:07;;;;;;;17.00;5.95;;;;;;;18.95;63.65;100550.91;6276316;22;20025;-93
2023/10/07 00:19:33;;;;;;;11.75;6.75;;;;;;;18.68;63.29;100510.00;6300734;22;20007;-93
2023/10/07 00:21:59;;;;;;;9.10;5.43;;;;;;;18.54;63.91;100497.13;6302679;22;20007;-92
2023/10/07 00:24:26;;;;;;;10.60;6.13;;;;;;;18.73;63.74;100526.72;6302319;22;20007;-91
2023/10/07 00:26:59;;;;;;;11.80;5.50;;;;;;;18.87;63.71;100556.53;6303993;22;20019;-92
2023/10/07 00:29:25;;;;;;;12.35;6.40;;;;;;;18.91;64.07;100571.53;6329100;22;20011;-93
2023/10/07 00:31:52;;;;;;;12.88;6.97;;;;;;;18.52;63.93;100493.63;6302690;22;20007;-92
2023/10/07 00:34:26;;;;;;;13.50;6.22;;;;;;;18.63;63.96;100523.53;6326113;22;20019;-88
2023/10/07 00:36:56;;;;;;;9.85;6.10;;;;;;;18.89;64.59;100577.84;6304353;22;20003;-92
2023/10/07 00:39:22;;;;;;;15.48;6.78;;;;;;;18.38;64.74;100500.34;6328416;22;20404;-92
2023/10/07 00:41:57;;;;;;;11.35;6.97;;;;;;;18.43;64.81;100517.06;6304446;22;20007;-91
2023/10/07 00:44:23;;;;;;;12.10;6.63;;;;;;;18.41;65.11;100497.56;6303268;22;20011;-92
2023/10/07 00:52:40;;;;;;;15.75;6.43;;;;;;;18.31;66.11;100517.47;6239620;23;20158;-91
2023/10/07 01:00:01;;;;;;;13.23;6.30;;;;;;;18.28;66.05;100500.69;6240092;23;20509;-91
2023/10/07 01:02:30;;;;;;;11.40;7.07;;;;;;;18.50;65.64;100523.06;6240286;23;20469;-91
2023/10/07 01:05:00;;;;;;;12.10;5.88;;;;;;;18.46;65.82;100521.44;6243064;23;20004;-91
2023/10/07 01:07:28;;;;;;;18.80;7.63;;;;;;;18.43;65.68;100498.38;6245531;23;20004;-91
2023/10/07 01:09:59;;;;;;;14.27;6.72;;;;;;;18.28;65.97;100506.91;6245167;23;20189;-91
2023/10/07 01:12:35;;;;;;;12.40;6.38;;;;;;;18.40;64.84;100517.16;6245984;23;20049;-90
2023/10/07 01:15:03;;;;;;;11.30;6.68;;;;;;;18.23;64.21;100496.38;6247260;23;20011;-91
2023/10/07 01:17:30;;;;;;;11.05;7.47;;;;;;;17.97;64.22;100486.56;6246739;23;20008;-91
2023/10/07 01:19:56;;;;;;;11.48;6.53;;;;;;;18.20;64.27;100536.53;6246514;23;20036;-90
2023/10/07 01:22:35;;;;;;;13.75;6.15;;;;;;;18.36;64.59;100563.59;6245377;23;20014;-89
2023/10/07 01:25:06;;;;;;;10.50;6.15;;;;;;;17.77;64.98;100463.16;6247511;23;20534;-92
2023/10/07 01:27:42;;;;;;;12.65;6.28;;;;;;;18.14;65.17;100528.72;6245388;23;20008;-91
2023/10/07 01:30:17;;;;;;;;;;;;;;;18.40;65.59;100581.28;6308681;22;20088;-92
2023/10/07 01:35:39;;;;;;;8.55;5.88;;;;;;;17.94;65.26;100486.66;6298597;22;20011;-90
2023/10/07 01:38:08;;;;;;;9.30;6.10;;;;;;;17.65;66.71;100522.25;6303023;22;20007;-91
2023/10/07 01:43:09;;;;;;;11.40;6.45;;;;;;;17.61;67.08;100480.59;6303953;22;20003;-91
2023/10/07 01:45:39;;;;;;;11.38;6.95;;;;;;;17.64;67.38;100486.72;6302272;22;20410;-91
2023/10/07 01:48:07;;;;;;;10.50;5.75;;;;;;;17.48;67.78;100470.31;6304303;22;20086;-90
2023/10/07 01:50:37;;;;;;;12.13;6.53;;;;;;;17.77;68.17;100519.22;6304704;22;20003;-92
2023/10/07 01:53:04;;;;;;;14.43;7.05;;;;;;;17.65;68.03;100476.91;6303989;22;20188;-92
2023/10/07 01:55:43;;;;;;;11.40;7.88;;;;;;;17.89;68.13;100520.66;6302743;22;20014;-92
2023/10/07 01:58:13;;;;;;;11.93;7.00;;;;;;;18.34;67.52;100584.16;6276476;22;20031;-92
2023/10/07 02:03:08;;;;;;;15.10;7.38;;;;;;;17.99;68.13;100542.56;6303855;22;19999;-91
2023/10/07 02:05:40;;;;;;;10.55;6.30;;;;;;;17.85;67.76;100495.81;6304563;22;20026;-91
2023/10/07 02:08:14;;;;;;;18.55;7.30;;;;;;;17.89;67.86;100516.19;6276254;22;20152;-91
2023/10/07 02:10:41;;;;;;;11.30;6.07;;;;;;;17.98;67.55;100528.38;6276855;22;20011;-92
2023/10/07 02:13:14;;;;;;;12.73;6.57;;;;;;;17.94;67.28;100523.19;6301911;22;20011;-91
2023/10/07 02:15:43;;;;;;;13.05;7.10;;;;;;;17.75;67.18;100501.50;6304560;22;20220;-92
2023/10/07 02:18:15;;;;;;;14.45;6.25;;;;;;;17.92;66.90;100506.31;6276717;22;20034;-93
2023/10/07 02:21:06;;;;;;;19.25;6.63;;;;;;;18.09;66.72;100528.00;6277606;22;20019;-92
2023/10/07 02:23:43;;;;;;;11.25;5.75;;;;;;;17.60;67.23;100485.06;6302598;22;20003;-92
2023/10/07 02:26:21;;;;;;;13.30;5.78;;;;;;;17.67;66.65;100502.63;6304288;22;20440;-93
2023/10/07 02:28:52;;;;;;;17.20;5.65;;;;;;;17.77;66.23;100513.00;6277455;22;20038;-93
2023/10/07 02:31:19;;;;;;;10.45;5.78;;;;;;;17.56;65.90;100467.41;6329080;22;20034;-91
2023/10/07 02:33:53;;;;;;;9.50;5.32;;;;;;;17.79;65.48;100512.03;6302549;22;20075;-92
2023/10/07 02:36:28;;;;;;;7.22;4.82;;;;;;;17.66;65.26;100506.22;6304100;22;20011;-91
2023/10/07 02:39:45;;;;;;;11.82;6.20;;;;;;;17.62;64.97;100509.03;6329036;22;20072;-92
2023/10/07 02:41:51;;;;;;;8.73;5.78;;;;;;;17.59;65.02;100514.44;6301524;22;20354;-91
2023/10/07 02:44:27;;;;;;;16.92;6.88;;;;;;;17.49;64.55;100506.72;6328847;22;20003;-92
2023/10/07 02:46:56;;;;;;;18.67;6.78;;;;;;;17.23;64.66;100488.00;6328687;22;20014;-90
2023/10/07 02:49:25;;;;;;;6.97;4.68;;;;;;;17.43;64.14;100514.06;6303661;22;20015;-90
2023/10/07 02:51:56;;;;;;;11.57;6.55;;;;;;;17.32;64.23;100490.38;6303679;22;20003;-90
2023/10/07 02:54:23;;;;;;;9.15;4.97;;;;;;;17.17;64.33;100476.56;6302668;22;20011;-88
2023/10/07 02:57:21;;;;;;;15.43;5.57;;;;;;;17.15;64.18;100504.22;6303537;22;20022;-90
2023/10/07 02:59:50;;;;;;;8.93;4.85;;;;;;;17.17;64.44;100505.03;6303152;22;19999;-89
2023/10/07 03:04:58;;;;;;;11.98;4.75;;;;;;;16.98;64.17;100449.59;6303962;22;20338;-88
2023/10/07 03:07:24;;;;;;;12.63;6.78;;;;;;;17.24;63.89;100530.59;6304116;22;20057;-89
2023/10/07 03:12:27;;;;;;;10.18;5.13;;;;;;;17.01;62.91;100480.63;6305905;22;20337;-90
2023/10/07 03:14:57;;;;;;;6.93;4.70;;;;;;;17.02;62.67;100489.47;6330162;22;20009;-89
2023/10/07 03:17:32;;;;;;;10.73;4.38;;;;;;;17.14;63.25;100537.09;6305787;22;20014;-91
2023/10/07 03:19:58;;;;;;;8.43;4.43;;;;;;;16.98;63.15;100491.38;6305935;22;20007;-87
2023/10/07 03:22:28;;;;;;;12.43;4.53;;;;;;;17.45;63.29;100598.41;6306088;22;20023;-91
2023/10/07 03:25:00;;;;;;;10.50;5.15;;;;;;;16.99;62.64;100504.66;6304788;22;20084;-91
2023/10/07 03:27:26;;;;;;;9.27;5.07;;;;;;;17.47;62.89;100604.59;6306709;22;20010;-90
2023/10/07 03:30:00;;;;;;;6.28;3.78;;;;;;;16.95;63.14;100516.31;6305775;22;19999;-87
2023/10/07 03:32:48;;;;;;;12.02;4.72;;;;;;;16.76;63.28;100521.25;6304383;22;20008;-88
2023/10/07 03:35:18;;;;;;;8.23;4.60;;;;;;;16.53;63.67;100484.59;6302940;22;20019;-91
2023/10/07 03:37:44;;;;;;;14.05;5.25;;;;;;;16.81;63.43;100531.78;6305973;22;20007;-91
2023/10/07 03:40:25;;;;;;;12.77;4.70;;;;;;;16.71;62.86;100501.84;6305600;22;19999;-91
2023/10/07 03:42:51;;;;;;;12.48;4.25;;;;;;;16.74;62.93;100479.56;6304302;22;20064;-90
2023/10/07 03:45:17;;;;;;;15.45;5.03;;;;;;;16.73;62.69;100508.03;6277957;22;20015;-90
2023/10/07 03:47:46;;;;;;;8.88;4.03;;;;;;;16.94;62.00;100538.53;6305412;22;20007;-90
2023/10/07 03:50:34;;;;;;;9.15;3.45;;;;;;;16.68;61.75;100483.28;6305938;22;20064;-91
2023/10/07 03:53:03;;;;;;;8.20;3.63;;;;;;;16.82;60.73;100504.19;6304624;22;20077;-92
2023/10/07 03:55:32;;;;;;;5.65;2.40;;;;;;;16.79;59.69;100507.84;6304449;22;20037;-92
2023/10/07 03:57:58;;;;;;;4.85;2.70;;;;;;;16.62;58.68;100504.75;6304303;22;20337;-92
2023/10/07 04:00:28;;;;;;;8.90;3.08;;;;;;;16.70;58.39;100526.75;6329515;22;20010;-92
2023/10/07 04:03:01;;;;;;;19.25;4.28;;;;;;;16.80;58.59;100522.03;6330783;22;20019;-91
2023/10/07 04:05:31;;;;;;;8.18;3.45;;;;;;;16.86;58.67;100531.66;6305641;22;20007;-89
2023/10/07 04:07:57;;;;;;;12.65;4.10;;;;;;;16.62;58.06;100496.75;6305775;22;20074;-88
2023/10/07 04:10:30;;;;;;;14.85;3.88;;;;;;;16.77;57.72;100516.78;6305154;22;20452;-89
2023/10/07 04:12:56;;;;;;;7.22;2.88;;;;;;;16.67;57.29;100529.50;6306026;22;20009;-89
2023/10/07 04:15:28;;;;;;;9.30;3.22;;;;;;;16.66;58.30;100541.06;6329754;22;20035;-89
2023/10/07 04:17:53;;;;;;;15.38;3.50;;;;;;;16.71;58.14;100541.78;6303889;22;20474;-89
2023/10/07 04:20:22;;;;;;;9.93;3.50;;;;;;;16.81;57.52;100547.78;6304937;22;20026;-89
2023/10/07 04:22:57;;;;;;;6.97;3.15;;;;;;;16.85;57.47;100540.56;6305531;22;20453;-90
2023/10/07 04:25:23;;;;;;;;;;;;;;;17.26;57.44;100606.06;6303105;22;20014;-87
2023/10/07 04:27:53;;;;;;;9.30;3.90;;;;;;;16.79;57.12;100534.50;6304808;22;19963;-87
2023/10/07 04:30:29;;;;;;;8.48;2.97;;;;;;;16.78;56.70;100523.88;6304967;22;20010;-87
2023/10/07 04:33:01;;;;;;;10.50;3.28;;;;;;;16.85;57.07;100538.75;6305482;22;20007;-88
2023/10/07 04:35:30;;;;;;;8.35;2.92;;;;;;;16.90;56.90;100549.31;6304905;22;20038;-88
2023/10/07 04:38:09;;;;;;;10.90;2.72;;;;;;;17.15;55.85;100558.38;6303165;22;20031;-90
2023/10/07 04:46:42;;;;;;;22.70;3.92;;;;;;;16.78;56.29;100551.38;6240966;23;20000;-89
2023/10/07 04:49:13;;;;;;;16.95;4.93;;;;;;;16.88;56.60;100552.03;6241386;23;20020;-92
2023/10/07 04:51:48;;;;;;;8.63;3.95;;;;;;;17.09;56.78;100561.22;6241484;23;20008;-91
2023/10/07 04:54:23;;;;;;;6.40;2.78;;;;;;;16.92;57.11;100548.38;6241042;23;20463;-89
2023/10/07 04:56:58;;;;;;;6.80;2.03;;;;;;;17.44;54.97;100609.13;6241592;23;20367;-91
2023/10/07 04:59:24;;;;;;;5.22;2.03;;;;;;;17.30;54.72;100597.09;6240920;23;20007;-92
2023/10/07 05:01:56;;;;;;;4.78;2.05;;;;;;;17.02;53.98;100554.31;6240383;23;20358;-89
2023/10/07 05:04:24;;;;;;;5.30;2.42;;;;;;;17.02;54.32;100556.97;6215332;23;20455;-89
2023/10/07 05:06:51;;;;;;;10.75;2.60;;;;;;;17.12;54.05;100538.97;6214678;23;20004;-91
2023/10/07 05:09:21;;;;;;;22.30;3.53;;;;;;;17.02;53.91;100542.78;6215531;23;20040;-91
2023/10/07 05:11:48;;;;;;;8.88;3.55;;;;;;;17.17;53.51;100591.19;6214928;23;20008;-89
2023/10/07 05:14:18;;;;;;;16.55;5.20;;;;;;;16.98;53.95;100566.00;6240471;23;20111;-90
2023/10/07 05:16:48;;;;;;;12.02;3.70;;;;;;;17.10;54.24;100578.97;6240499;23;20015;-92
2023/10/07 05:19:26;;;;;;;9.65;3.50;;;;;;;16.71;53.90;100531.16;6240830;23;20004;-91
2023/10/07 05:22:00;;;;;;;12.68;4.93;;;;;;;16.68;53.68;100557.00;6269648;22;20013;-91
2023/10/07 05:24:29;;;;;;;32.30;3.80;;;;;;;16.71;53.58;100547.13;6329390;22;20014;-90
2023/10/07 05:26:57;;;;;;;8.25;2.88;;;;;;;17.43;53.98;100650.94;6302273;22;20031;-91
2023/10/07 05:29:24;;;;;;;12.93;3.17;;;;;;;17.04;54.42;100579.16;6303182;22;20094;-91
2023/10/07 05:31:49;;;;;;;6.72;3.40;;;;;;;17.27;54.12;100574.94;6304401;22;19999;-90
2023/10/07 05:34:15;;;;;;;10.23;3.47;;;;;;;17.18;53.80;100571.63;6329574;22;20030;-89
2023/10/07 05:36:41;;;;;;;15.15;3.83;;;;;;;17.12;53.81;100555.81;6304797;22;20427;-90
2023/10/07 05:39:08;;;;;;;6.68;3.15;;;;;;;16.97;53.82;100573.09;6276840;22;20068;-89
2023/10/07 05:41:33;;;;;;;8.75;2.78;;;;;;;16.92;53.79;100547.50;6303022;22;20003;-87
2023/10/07 05:43:59;;;;;;;8.52;2.75;;;;;;;17.40;53.71;100631.50;6303532;22;20026;-89
2023/10/07 05:46:24;;;;;;;4.30;2.50;;;;;;;17.12;52.97;100589.59;6302446;22;20086;-85
2023/10/07 05:48:51;;;;;;;6.70;3.17;;;;;;;17.45;52.32;100643.75;6303353;22;20441;-84
2023/10/07 05:51:17;;;;;;;7.15;2.67;;;;;;;17.21;52.95;100578.69;6303601;22;20034;-86
2023/10/07 05:53:51;;;;;;;12.15;2.88;;;;;;;17.30;52.25;100580.19;6303892;22;19999;-94
2023/10/07 05:56:17;;;;;;;5.32;2.95;;;;;;;17.42;52.07;100585.16;6301572;22;20390;-91
2023/10/07 05:58:45;;;;;;;9.63;2.92;;;;;;;17.83;51.37;100644.44;6303538;22;20034;-89
2023/10/07 06:01:14;;;;;;;7.75;2.10;;;;;;;17.81;49.51;100640.06;6302280;22;20004;-90
2023/10/07 06:03:40;;;;;;;6.45;2.72;;;;;;;17.28;50.17;100587.38;6302035;22;20007;-85
2023/10/07 06:06:06;;;;;;;3.50;2.47;;;;;;;17.68;50.57;100634.22;6304064;22;20014;-89
2023/10/07 06:08:32;;;;;;;5.45;2.63;;;;;;;18.02;49.74;100684.81;6304248;22;20004;-90
2023/10/07 06:10:59;;;;;;;7.90;2.75;;;;;;;17.88;49.28;100617.63;6303067;22;20332;-87
2023/10/07 06:13:29;;;;;;;6.65;3.60;;;;;;;17.45;49.40;100602.88;6303660;22;20064;-87
2023/10/07 06:15:55;;;;;;;6.22;2.10;;;;;;;18.13;50.31;100632.91;6327981;22;20331;-89
2023/10/07 06:18:22;;;;;;;7.53;1.75;;;;;;;17.95;49.95;100587.19;6303562;22;20064;-90
2023/10/07 06:20:51;;;;;;;13.05;2.80;;;;;;;18.12;48.60;100567.97;6303132;22;20110;-90
2023/10/07 06:23:18;;;;;;;7.70;3.33;;;;;;;18.47;47.96;100624.66;6302129;22;20022;-88
2023/10/07 06:25:49;;;;;;;8.77;4.07;;;;;;;18.51;48.84;100623.66;6302955;22;20003;-85
2023/10/07 06:31:00;;;;;;;6.15;2.25;;;;;;;19.17;47.86;100663.34;6303476;22;20007;-90
2023/10/07 06:33:26;;;;;;;7.63;2.97;;;;;;;18.69;48.13;100595.44;6328100;22;20288;-89
2023/10/07 06:35:53;;;;;;;4.55;2.30;;;;;;;19.47;47.04;100625.69;6301090;22;20007;-88
2023/10/07 06:38:19;;;;;;;7.22;2.15;;;;;;;19.82;46.06;100612.81;6303088;22;20034;-89
2023/10/07 06:40:48;;;;;;;4.30;2.67;;;;;;;20.08;44.81;100600.19;6300960;22;20000;-90
2023/10/07 06:43:14;;;;;;;6.07;2.47;;;;;;;20.28;44.03;100562.78;6327419;22;20424;-86
2023/10/07 06:45:44;;;;;;;4.20;2.30;;;;;;;20.26;44.01;100610.16;6303907;22;19999;-85
2023/10/07 06:48:11;;;;;;;7.75;2.60;;;;;;;20.26;43.74;100593.22;6305094;22;20022;-87
2023/10/07 06:50:41;;;;;;;5.45;2.70;;;;;;;20.51;43.50;100593.06;6305070;22;20007;-86
2023/10/07 06:53:11;;;;;;;7.72;2.17;;;;;;;20.56;43.24;100615.22;6304430;22;20014;-85
2023/10/07 06:55:44;;;;;;;13.95;2.47;;;;;;;20.62;42.57;100572.06;6304704;22;20357;-85
2023/10/07 06:58:11;;;;;;;7.03;2.83;;;;;;;20.84;42.78;100539.84;6303445;22;20061;-85
2023/10/07 07:00:49;;;;;;;5.47;2.83;;;;;;;21.04;42.51;100568.47;6302887;22;20003;-91
2023/10/07 07:03:20;;;;;;;6.10;2.25;;;;;;;20.38;43.22;100563.25;6278447;22;20045;-92
2023/10/07 07:05:46;;;;;;;9.93;2.25;;;;;;;20.20;44.73;100587.19;6303684;22;20007;-93
2023/10/07 07:08:15;;;;;;;17.90;4.32;;;;;;;20.32;44.25;100574.22;6305061;22;20031;-93
2023/10/07 07:10:41;;;;;;;5.47;2.47;;;;;;;20.33;43.63;100598.28;6301135;22;20181;-84
2023/10/07 07:13:15;;;;;;;8.68;3.78;;;;;;;20.27;43.97;100570.88;6303926;22;20003;-86
2023/10/07 07:15:47;;;;;;;4.15;2.72;;;;;;;20.16;43.33;100547.22;6303728;22;20076;-89
2023/10/07 07:21:00;;;;;;;8.15;3.28;;;;;;;20.64;42.49;100580.91;6303467;22;20313;-85
2023/10/07 07:23:35;;;;;;;9.52;3.75;;;;;;;20.96;42.99;100635.00;6303915;22;20010;-88
2023/10/07 07:26:18;;;;;;;5.95;2.80;;;;;;;20.42;42.30;100527.38;6301272;22;20465;-91
2023/10/07 07:29:31;;;;;;;5.45;3.00;;;;;;;20.73;42.02;100531.44;6302083;22;20029;-89
2023/10/07 07:31:56;;;;;;;7.38;2.47;;;;;;;21.06;41.66;100558.53;6275308;22;20010;-89
2023/10/07 07:34:54;;;;;;;5.45;2.13;;;;;;;21.24;40.53;100527.31;6303534;22;20033;-89
2023/10/07 07:37:19;;;;;;;6.88;2.60;;;;;;;21.68;40.15;100557.56;6274666;22;20127;-87
2023/10/07 07:39:47;;;;;;;6.97;2.60;;;;;;;21.46;40.13;100550.47;6303168;22;20022;-89
2023/10/07 07:42:16;;;;;;;7.13;2.67;;;;;;;21.58;41.50;100586.63;6276867;22;20007;-90
2023/10/07 07:44:55;;;;;;;9.48;2.20;;;;;;;21.54;40.15;100572.50;6278732;22;20256;-90
2023/10/07 07:47:22;;;;;;;10.38;3.05;;;;;;;21.59;40.08;100566.91;6301843;22;20299;-90
2023/10/07 07:49:51;;;;;;;6.90;3.42;;;;;;;21.70;40.06;100539.53;6304521;22;20011;-91
2023/10/07 07:52:19;;;;;;;7.82;3.22;;;;;;;22.45;39.01;100602.19;6304496;22;19999;-91
2023/10/07 07:54:45;;;;;;;7.72;3.17;;;;;;;22.62;38.08;100601.34;6303917;22;20085;-93
2023/10/07 07:57:12;;;;;;;4.20;2.17;;;;;;;22.23;38.72;100589.78;6302336;22;20039;-93
2023/10/07 07:59:38;;;;;;;6.10;2.83;;;;;;;22.26;39.86;100573.53;6301910;22;20015;-92
2023/10/07 08:02:15;;;;;;;7.22;3.13;;;;;;;22.65;39.08;100540.22;6277244;22;20064;-93
2023/10/07 08:04:48;;;;;;;6.68;2.75;;;;;;;22.91;38.10;100574.75;6303283;22;20031;-93
2023/10/07 08:07:19;;;;;;;4.75;2.97;;;;;;;22.80;37.38;100527.78;6302824;22;20033;-90
2023/10/07 08:09:46;;;;;;;6.20;2.75;;;;;;;22.45;37.78;100538.53;6303576;22;20010;-89
2023/10/07 08:12:18;;;;;;;7.80;2.10;;;;;;;22.82;37.89;100552.78;6304327;22;20145;-90
2023/10/07 08:14:50;;;;;;;5.22;2.55;;;;;;;22.62;38.57;100543.06;6303774;22;20007;-90
2023/10/07 08:17:19;;;;;;;7.10;3.38;;;;;;;23.00;37.74;100524.03;6303828;22;20008;-90
2023/10/07 08:19:52;;;;;;;2.88;1.83;;;;;;;23.36;38.57;100552.63;6303431;22;20011;-89
2023/10/07 08:22:27;;;;;;;28.20;16.15;;;;;;;23.86;36.63;100598.41;6303840;22;20003;-90
2023/10/07 08:24:53;;;;;;;6.85;5.00;;;;;;;23.39;36.80;100504.00;6301982;22;20082;-90
2023/10/07 08:30:07;;;;;;;9.25;4.80;;;;;;;23.10;35.92;100508.28;6303602;22;20022;-89
2023/10/07 08:32:37;;;;;;;10.27;5.35;;;;;;;23.54;36.32;100502.28;6276530;22;19999;-90
2023/10/07 08:35:14;;;;;;;8.52;2.95;;;;;;;23.48;35.72;100518.78;6275951;22;20407;-89
2023/10/07 08:37:45;;;;;;;7.00;2.38;;;;;;;23.43;36.11;100596.22;6301483;22;20045;-87
2023/10/07 08:40:25;;;;;;;22.10;11.75;;;;;;;23.20;36.26;100543.63;6303235;22;20007;-91
2023/10/07 08:42:56;;;;;;;9.35;4.32;;;;;;;23.47;36.49;100535.88;6302826;22;20011;-95
2023/10/07 08:45:24;;;;;;;11.75;7.05;;;;;;;23.59;35.67;100528.94;6303373;22;20035;-89
2023/10/07 08:48:08;;;;;;;7.38;3.42;;;;;;;23.85;35.32;100523.91;6306642;22;20003;-92
2023/10/07 08:50:42;;;;;;;7.13;3.65;;;;;;;23.29;36.27;100470.47;6301755;22;20438;-92
2023/10/07 08:53:14;;;;;;;7.90;3.28;;;;;;;23.91;35.87;100526.25;6276009;22;20011;-89
2023/10/07 08:55:43;;;;;;;7.20;2.95;;;;;;;23.66;35.03;100519.53;6277023;22;20073;-93
2023/10/07 08:58:11;;;;;;;10.18;4.30;;;;;;;23.24;35.42;100464.47;6303121;22;20007;-93
2023/10/07 09:00:45;;;;;;;6.38;3.40;;;;;;;23.43;35.71;100510.06;6302914;22;20003;-87
2023/10/07 09:03:15;;;;;;;6.47;3.13;;;;;;;23.47;35.75;100487.41;6303293;22;19999;-89
2023/10/07 09:05:43;;;;;;;8.73;3.10;;;;;;;23.66;35.12;100505.22;6276491;22;20354;-91
2023/10/07 09:08:11;;;;;;;10.48;3.60;;;;;;;23.75;34.18;100521.72;6303145;22;20089;-87
2023/10/07 09:10:38;;;;;;;9.40;5.53;;;;;;;23.58;34.51;100497.56;6303611;22;20010;-95
2023/10/07 09:13:11;;;;;;;4.35;2.00;;;;;;;23.03;34.78;100463.78;6304355;22;20015;-94
2023/10/07 09:15:42;;;;;;;13.70;6.57;;;;;;;23.55;34.50;100501.28;6302856;22;20083;-94
2023/10/07 09:18:10;;;;;;;6.18;2.33;;;;;;;23.45;34.94;100491.13;6303295;22;20040;-94
2023/10/07 09:20:45;;;;;;;3.83;1.95;;;;;;;23.67;34.02;100448.56;6304900;22;20422;-90
2023/10/07 09:23:19;;;;;;;5.57;2.72;;;;;;;22.98;34.45;100498.16;6303243;22;20111;-92
2023/10/07 09:25:55;;;;;;;4.82;2.60;;;;;;;22.92;34.51;100447.38;6301288;22;20011;-88
2023/10/07 09:28:34;;;;;;;7.72;2.20;;;;;;;23.51;33.96;100480.03;6302977;22;20003;-89
2023/10/07 09:31:06;;;;;;;7.88;2.88;;;;;;;23.19;35.29;100469.25;6303006;22;20420;-91
2023/10/07 09:33:35;;;;;;;6.47;2.55;;;;;;;23.54;34.75;100483.44;6303019;22;20011;-91
2023/10/07 09:38:48;;;;;;;4.30;2.25;;;;;;;23.61;34.77;100448.94;6302992;22;20018;-88
2023/10/07 09:43:56;;;;;;;4.47;2.38;;;;;;;23.40;35.46;100403.44;6302753;22;19999;-87
2023/10/07 09:46:25;;;;;;;6.70;2.58;;;;;;;24.01;34.80;100481.66;6302906;22;20010;-87
2023/10/07 09:48:51;;;;;;;15.05;3.78;;;;;;;24.05;34.46;100464.38;6275213;22;20042;-86
2023/10/07 09:51:34;;;;;;;9.98;3.03;;;;;;;24.00;34.63;100463.75;6303241;22;20050;-87
2023/10/07 09:54:29;;;;;;;5.82;3.03;;;;;;;24.10;34.41;100488.34;6302804;22;20398;-84
2023/10/07 09:57:29;;;;;;;7.28;3.17;;;;;;;24.03;34.40;100466.28;6300016;22;20460;-85
2023/10/07 10:03:12;;;;;;;7.78;2.95;;;;;;;24.28;34.63;100471.09;6302506;22;19999;-87
2023/10/07 10:05:56;;;;;;;6.47;2.45;;;;;;;24.58;34.69;100464.81;6302862;22;20003;-89
2023/10/07 10:08:55;;;;;;;5.43;3.00;;;;;;;24.71;34.46;100458.66;6302334;22;20003;-91
2023/10/07 10:11:31;;;;;;;7.00;3.58;;;;;;;24.71;34.83;100421.75;6303027;22;19999;-88
2023/10/07 10:16:53;;;;;;;9.00;3.53;;;;;;;23.85;35.42;100402.69;6302230;22;20342;-82
2023/10/07 10:20:00;;;;;;;8.57;2.92;;;;;;;23.77;36.40;100409.38;6303510;22;19999;-85
2023/10/07 10:22:24;;;;;;;5.93;3.67;;;;;;;24.05;35.56;100425.75;6302314;22;20094;-88
2023/10/07 10:25:09;;;;;;;4.57;2.78;;;;;;;24.16;35.20;100401.75;6302876;22;20037;-88
2023/10/07 10:27:43;;;;;;;4.65;2.63;;;;;;;23.73;36.04;100382.72;6303079;22;20442;-88
2023/10/07 10:30:21;;;;;;;4.95;3.10;;;;;;;23.63;36.44;100377.00;6302486;22;20434;-88
2023/10/07 10:32:54;;;;;;;4.65;2.33;;;;;;;23.75;36.83;100359.25;6302852;22;20132;-88
2023/10/07 10:35:26;;;;;;;5.03;2.50;;;;;;;24.24;35.82;100366.25;6275092;22;20015;-88
2023/10/07 10:37:58;;;;;;;5.35;3.08;;;;;;;24.31;35.74;100370.28;6302076;22;20014;-91
2023/10/07 10:40:27;;;;;;;6.07;3.47;;;;;;;24.28;35.73;100351.59;6274880;22;20011;-86
2023/10/07 10:42:53;;;;;;;8.43;2.83;;;;;;;24.46;35.41;100366.63;6302894;22;19999;-90
2023/10/07 10:45:21;;;;;;;4.63;3.05;;;;;;;24.48;35.48;100380.00;6302561;22;20090;-87
2023/10/07 10:47:52;;;;;;;10.75;3.45;;;;;;;24.47;35.08;100362.97;6274712;22;20394;-85
2023/10/07 10:50:23;;;;;;;7.20;3.33;;;;;;;24.44;34.93;100348.84;6302760;22;20082;-87
2023/10/07 10:52:54;;;;;;;3.67;2.08;;;;;;;24.32;34.86;100353.16;6275075;22;20094;-90
2023/10/07 10:55:19;;;;;;;5.88;2.90;;;;;;;23.94;35.53;100305.16;6302964;22;20004;-94
2023/10/07 10:57:45;;;;;;;6.07;2.75;;;;;;;24.44;36.12;100347.00;6275047;22;20015;-90
2023/10/07 11:00:22;;;;;;;7.00;2.85;;;;;;;24.89;34.58;100335.25;6302426;22;20042;-88
2023/10/07 11:02:53;;;;;;;7.32;3.38;;;;;;;24.74;35.02;100316.38;6274656;22;20020;-89
2023/10/07 11:05:22;;;;;;;5.88;2.45;;;;;;;24.68;34.82;100305.97;6275464;22;20076;-87
2023/10/07 11:07:50;;;;;;;5.95;2.33;;;;;;;24.83;33.47;100302.28;6300430;22;20003;-90
2023/10/07 11:10:23;;;;;;;6.15;3.33;;;;;;;24.94;34.03;100322.31;6302445;22;20006;-87
2023/10/07 11:12:56;;;;;;;6.18;3.00;;;;;;;25.16;33.30;100322.66;6275013;22;20062;-89
2023/10/07 11:15:26;;;;;;;6.30;3.75;;;;;;;25.11;33.24;100313.97;6301885;22;20008;-86
2023/10/07 11:18:12;;;;;;;5.10;3.35;;;;;;;25.07;33.03;100320.56;6302491;22;20011;-89
2023/10/07 11:20:40;;;;;;;4.75;3.05;;;;;;;25.11;32.87;100302.31;6302520;22;19999;-89
2023/10/07 11:23:08;;;;;;;8.02;3.22;;;;;;;24.63;33.28;100254.16;6302179;22;20007;-89
2023/10/07 11:25:35;;;;;;;6.70;3.05;;;;;;;25.12;33.20;100299.50;6302342;22;20038;-89
2023/10/07 11:28:09;;;;;;;5.10;2.72;;;;;;;24.98;32.91;100261.78;6274808;22;20011;-85
2023/10/07 11:30:47;;;;;;;6.82;3.17;;;;;;;25.45;31.95;100306.34;6303885;22;20006;-89
2023/10/07 11:33:16;;;;;;;4.43;2.95;;;;;;;25.27;32.40;100267.06;6304742;22;20007;-83
2023/10/07 11:35:59;;;;;;;7.20;3.28;;;;;;;25.49;31.81;100293.53;6305270;22;20000;-87
2023/10/07 11:38:26;;;;;;;7.60;2.80;;;;;;;25.53;31.99;100273.41;6303201;22;20042;-87
2023/10/07 11:40:51;;;;;;;7.57;3.92;;;;;;;25.28;31.79;100250.75;6276892;22;20003;-88
2023/10/07 11:43:17;;;;;;;6.80;3.65;;;;;;;25.18;32.69;100222.66;6304210;22;20082;-86
2023/10/07 11:45:44;;;;;;;9.05;4.07;;;;;;;25.56;32.11;100257.00;6304478;22;20026;-86
2023/10/07 11:48:11;;;;;;;8.25;4.20;;;;;;;25.50;32.16;100252.03;6305135;22;20018;-88
2023/10/07 11:50:37;;;;;;;11.23;3.13;;;;;;;25.66;32.15;100271.63;6304816;22;20161;-87
2023/10/07 11:53:03;;;;;;;8.15;3.20;;;;;;;25.35;31.72;100270.16;6303929;22;20045;-86
2023/10/07 11:55:31;;;;;;;8.77;4.03;;;;;;;25.36;32.05;100256.56;6304017;22;20030;-85
2023/10/07 11:58:00;;;;;;;8.05;3.63;;;;;;;25.49;31.46;100232.25;6304265;22;20003;-89
2023/10/07 12:00:34;;;;;;;11.40;4.30;;;;;;;25.79;31.34;100247.31;6275858;22;20064;-88
2023/10/07 12:03:01;;;;;;;7.40;2.75;;;;;;;25.84;30.73;100252.38;6304381;22;20384;-89
2023/10/07 12:05:28;;;;;;;5.30;3.08;;;;;;;25.80;30.77;100226.56;6304025;22;20445;-88
2023/10/07 12:07:55;;;;;;;8.23;3.65;;;;;;;25.73;30.75;100229.72;6303236;22;19999;-84
2023/10/07 12:10:22;;;;;;;6.80;2.67;;;;;;;25.86;30.23;100236.94;6303837;22;20011;-85
2023/10/07 12:12:49;;;;;;;7.05;2.15;;;;;;;26.02;30.01;100234.91;6303855;22;20110;-84
2023/10/07 12:15:17;;;;;;;4.05;2.42;;;;;;;25.75;29.48;100229.59;6303555;22;20004;-84
2023/10/07 12:17:44;;;;;;;7.13;2.40;;;;;;;25.83;29.23;100211.00;6303950;22;20007;-83
2023/10/07 12:20:12;;;;;;;6.78;2.70;;;;;;;25.93;28.96;100230.13;6303753;22;20011;-85
2023/10/07 12:22:42;;;;;;;5.30;2.63;;;;;;;25.96;28.78;100202.88;6303216;22;20003;-86
2023/10/07 12:25:21;;;;;;;6.30;2.63;;;;;;;25.91;29.58;100188.84;6276487;22;20342;-86
2023/10/07 12:27:47;;;;;;;7.35;2.10;;;;;;;26.14;29.90;100197.19;6303879;22;20090;-85
2023/10/07 12:30:14;;;;;;;16.67;2.22;;;;;;;26.05;28.90;100179.78;6304039;22;20434;-90